sensor_id;sensor_type;location;lat;lon;timestamp;pressure;altitude;pressure_sealevel;temperature;humidity
56402;BME280;42299;35.160;26.100;2023-08-24T00:08:57;100688.97;;;24.10;100.00
56402;BME280;42299;35.160;26.100;2023-08-24T00:19:23;100699.94;;;23.83;100.00
56402;BME280;42299;35.160;26.100;2023-08-24T00:29:45;100694.53;;;23.83;100.00
56402;BME280;42299;35.160;26.100;2023-08-24T00:40:10;100695.75;;;23.98;100.00
56402;BME280;42299;35.160;26.100;2023-08-24T00:50:33;100689.72;;;23.92;100.00
56402;BME280;42299;35.160;26.100;2023-08-24T01:00:57;100671.88;;;23.89;100.00
56402;BME280;42299;35.160;26.100;2023-08-24T01:11:27;100680.94;;;23.87;100.00
56402;BME280;42299;35.160;26.100;2023-08-24T01:21:57;100673.31;;;23.76;100.00
56402;BME280;42299;35.160;26.100;2023-08-24T01:32:25;100680.97;;;23.63;100.00
56402;BME280;42299;35.160;26.100;2023-08-24T01:42:52;100693.66;;;23.61;100.00
56402;BME280;42299;35.160;26.100;2023-08-24T01:53:21;100683.75;;;23.62;100.00
56402;BME280;42299;35.160;26.100;2023-08-24T02:03:44;100675.34;;;23.46;100.00
56402;BME280;42299;35.160;26.100;2023-08-24T02:14:08;100674.75;;;23.38;100.00
56402;BME280;42299;35.160;26.100;2023-08-24T02:24:32;100675.88;;;23.32;100.00
56402;BME280;42299;35.160;26.100;2023-08-24T02:34:57;100691.34;;;23.27;100.00
56402;BME280;42299;35.160;26.100;2023-08-24T02:45:19;100691.38;;;23.26;100.00
56402;BME280;42299;35.160;26.100;2023-08-24T02:55:44;100690.69;;;23.21;100.00
56402;BME280;42299;35.160;26.100;2023-08-24T03:06:07;100693.78;;;23.10;100.00
56402;BME280;42299;35.160;26.100;2023-08-24T03:16:33;100696.63;;;23.05;100.00
56402;BME280;42299;35.160;26.100;2023-08-24T03:26:56;100685.25;;;22.97;100.00
56402;BME280;42299;35.160;26.100;2023-08-24T03:37:21;100697.78;;;22.98;100.00
56402;BME280;42299;35.160;26.100;2023-08-24T03:47:44;100707.75;;;22.96;100.00
56402;BME280;42299;35.160;26.100;2023-08-24T03:58:09;100716.50;;;23.03;100.00
56402;BME280;42299;35.160;26.100;2023-08-24T04:08:33;100712.19;;;23.22;100.00
56402;BME280;42299;35.160;26.100;2023-08-24T04:18:59;100716.34;;;23.56;100.00
56402;BME280;42299;35.160;26.100;2023-08-24T04:29:21;100714.13;;;24.10;100.00
56402;BME280;42299;35.160;26.100;2023-08-24T04:39:46;100710.13;;;24.62;100.00
56402;BME280;42299;35.160;26.100;2023-08-24T04:50:09;100719.22;;;25.22;100.00
56402;BME280;42299;35.160;26.100;2023-08-24T05:00:33;100729.88;;;26.02;100.00
56402;BME280;42299;35.160;26.100;2023-08-24T05:10:56;100722.16;;;26.83;100.00
56402;BME280;42299;35.160;26.100;2023-08-24T05:21:19;100711.53;;;27.79;100.00
56402;BME280;42299;35.160;26.100;2023-08-24T05:31:42;100713.84;;;28.79;100.00
56402;BME280;42299;35.160;26.100;2023-08-24T05:42:07;100722.56;;;29.85;100.00
56402;BME280;42299;35.160;26.100;2023-08-24T05:52:30;100724.66;;;30.89;100.00
56402;BME280;42299;35.160;26.100;2023-08-24T06:02:55;100735.28;;;31.95;91.45
56402;BME280;42299;35.160;26.100;2023-08-24T06:13:17;100738.34;;;32.51;73.56
56402;BME280;42299;35.160;26.100;2023-08-24T06:23:41;100733.47;;;33.02;62.44
56402;BME280;42299;35.160;26.100;2023-08-24T06:34:06;100734.47;;;33.58;51.82
56402;BME280;42299;35.160;26.100;2023-08-24T06:44:30;100739.34;;;33.99;52.67
56402;BME280;42299;35.160;26.100;2023-08-24T06:54:53;100741.31;;;34.08;47.22
56402;BME280;42299;35.160;26.100;2023-08-24T07:05:18;100738.53;;;34.42;46.79
56402;BME280;42299;35.160;26.100;2023-08-24T07:15:41;100732.63;;;34.89;43.98
56402;BME280;42299;35.160;26.100;2023-08-24T07:26:05;100737.59;;;35.37;42.83
56402;BME280;42299;35.160;26.100;2023-08-24T07:36:29;100741.91;;;35.30;41.16
56402;BME280;42299;35.160;26.100;2023-08-24T07:46:53;100741.00;;;35.50;39.68
56402;BME280;42299;35.160;26.100;2023-08-24T07:57:16;100743.53;;;35.63;40.44
56402;BME280;42299;35.160;26.100;2023-08-24T08:07:40;100739.78;;;35.64;42.57
56402;BME280;42299;35.160;26.100;2023-08-24T08:18:03;100732.59;;;35.72;44.94
56402;BME280;42299;35.160;26.100;2023-08-24T08:28:27;100733.78;;;35.58;47.57
56402;BME280;42299;35.160;26.100;2023-08-24T08:38:49;100740.84;;;35.72;47.94
56402;BME280;42299;35.160;26.100;2023-08-24T08:49:13;100744.97;;;36.27;48.54
56402;BME280;42299;35.160;26.100;2023-08-24T08:59:38;100746.13;;;36.44;48.04
56402;BME280;42299;35.160;26.100;2023-08-24T09:10:04;100743.84;;;36.97;46.10
56402;BME280;42299;35.160;26.100;2023-08-24T09:20:28;100754.28;;;37.23;45.24
56402;BME280;42299;35.160;26.100;2023-08-24T09:30:53;100743.03;;;37.63;43.82
56402;BME280;42299;35.160;26.100;2023-08-24T09:41:16;100746.44;;;37.84;42.69
56402;BME280;42299;35.160;26.100;2023-08-24T09:51:40;100741.38;;;37.79;43.63
56402;BME280;42299;35.160;26.100;2023-08-24T10:02:14;100722.41;;;38.04;42.65
56402;BME280;42299;35.160;26.100;2023-08-24T10:12:44;100727.00;;;37.85;41.31
56402;BME280;42299;35.160;26.100;2023-08-24T10:23:10;100720.97;;;37.72;43.45
56402;BME280;42299;35.160;26.100;2023-08-24T10:33:35;100718.53;;;37.50;43.79
56402;BME280;42299;35.160;26.100;2023-08-24T10:44:04;100716.09;;;37.47;42.83
56402;BME280;42299;35.160;26.100;2023-08-24T10:54:31;100710.41;;;37.48;41.72
56402;BME280;42299;35.160;26.100;2023-08-24T11:05:07;100715.66;;;37.42;40.94
56402;BME280;42299;35.160;26.100;2023-08-24T11:15:42;100714.56;;;37.16;41.37
56402;BME280;42299;35.160;26.100;2023-08-24T11:26:05;100721.22;;;37.03;41.84
56402;BME280;42299;35.160;26.100;2023-08-24T11:36:30;100711.81;;;37.16;42.11
56402;BME280;42299;35.160;26.100;2023-08-24T11:46:56;100703.28;;;37.19;42.11
56402;BME280;42299;35.160;26.100;2023-08-24T11:57:21;100683.88;;;37.01;41.61
56402;BME280;42299;35.160;26.100;2023-08-24T12:07:45;100673.13;;;36.98;40.55
56402;BME280;42299;35.160;26.100;2023-08-24T12:18:10;100674.91;;;36.80;40.02
56402;BME280;42299;35.160;26.100;2023-08-24T12:28:32;100678.94;;;36.56;41.92
56402;BME280;42299;35.160;26.100;2023-08-24T12:38:57;100675.31;;;36.27;44.15
56402;BME280;42299;35.160;26.100;2023-08-24T12:49:20;100665.72;;;36.12;44.54
56402;BME280;42299;35.160;26.100;2023-08-24T12:59:45;100665.72;;;36.02;44.77
56402;BME280;42299;35.160;26.100;2023-08-24T13:10:08;100656.41;;;35.53;43.21
56402;BME280;42299;35.160;26.100;2023-08-24T13:20:33;100666.19;;;35.37;43.35
56402;BME280;42299;35.160;26.100;2023-08-24T13:30:56;100655.91;;;35.08;43.22
56402;BME280;42299;35.160;26.100;2023-08-24T13:41:20;100656.69;;;34.99;46.08
56402;BME280;42299;35.160;26.100;2023-08-24T13:51:42;100656.88;;;34.66;53.76
56402;BME280;42299;35.160;26.100;2023-08-24T14:02:07;100665.97;;;34.66;55.37
56402;BME280;42299;35.160;26.100;2023-08-24T14:12:29;100657.31;;;34.82;52.01
56402;BME280;42299;35.160;26.100;2023-08-24T14:22:53;100650.34;;;34.99;49.62
56402;BME280;42299;35.160;26.100;2023-08-24T14:33:16;100661.47;;;34.76;50.71
56402;BME280;42299;35.160;26.100;2023-08-24T14:43:41;100669.03;;;34.31;49.90
56402;BME280;42299;35.160;26.100;2023-08-24T14:54:03;100665.38;;;33.88;50.93
56402;BME280;42299;35.160;26.100;2023-08-24T15:04:29;100666.03;;;33.47;52.63
56402;BME280;42299;35.160;26.100;2023-08-24T15:15:00;100672.66;;;33.09;51.40
56402;BME280;42299;35.160;26.100;2023-08-24T15:25:25;100666.50;;;32.72;50.67
56402;BME280;42299;35.160;26.100;2023-08-24T15:35:48;100666.88;;;32.44;48.77
56402;BME280;42299;35.160;26.100;2023-08-24T15:46:13;100663.34;;;32.31;48.51
56402;BME280;42299;35.160;26.100;2023-08-24T15:56:36;100666.69;;;32.11;49.26
56402;BME280;42299;35.160;26.100;2023-08-24T16:07:01;100675.84;;;31.86;50.51
56402;BME280;42299;35.160;26.100;2023-08-24T16:17:24;100679.28;;;31.64;50.32
56402;BME280;42299;35.160;26.100;2023-08-24T16:27:48;100686.06;;;31.46;49.94
56402;BME280;42299;35.160;26.100;2023-08-24T16:38:11;100686.63;;;31.25;50.31
56402;BME280;42299;35.160;26.100;2023-08-24T16:48:35;100690.97;;;31.03;51.12
56402;BME280;42299;35.160;26.100;2023-08-24T16:58:58;100701.63;;;30.80;52.26
56402;BME280;42299;35.160;26.100;2023-08-24T17:09:22;100710.53;;;30.57;53.92
56402;BME280;42299;35.160;26.100;2023-08-24T17:19:44;100713.31;;;30.29;60.09
56402;BME280;42299;35.160;26.100;2023-08-24T17:30:10;100716.81;;;30.04;62.28
56402;BME280;42299;35.160;26.100;2023-08-24T17:40:32;100727.53;;;29.79;65.75
56402;BME280;42299;35.160;26.100;2023-08-24T17:50:59;100727.84;;;29.60;66.91
56402;BME280;42299;35.160;26.100;2023-08-24T18:01:22;100726.28;;;29.42;68.72
56402;BME280;42299;35.160;26.100;2023-08-24T18:11:46;100729.34;;;29.21;71.26
56402;BME280;42299;35.160;26.100;2023-08-24T18:22:08;100745.41;;;28.96;73.64
56402;BME280;42299;35.160;26.100;2023-08-24T18:32:32;100731.03;;;28.80;74.55
56402;BME280;42299;35.160;26.100;2023-08-24T18:42:55;100741.25;;;28.29;83.53
56402;BME280;42299;35.160;26.100;2023-08-24T18:53:19;100764.53;;;28.02;90.67
56402;BME280;42299;35.160;26.100;2023-08-24T19:03:41;100774.25;;;28.06;93.56
56402;BME280;42299;35.160;26.100;2023-08-24T19:14:05;100782.81;;;28.16;97.62
56402;BME280;42299;35.160;26.100;2023-08-24T19:24:28;100780.00;;;27.84;100.00
56402;BME280;42299;35.160;26.100;2023-08-24T19:34:52;100778.34;;;27.82;100.00
56402;BME280;42299;35.160;26.100;2023-08-24T19:45:15;100774.34;;;27.89;100.00
56402;BME280;42299;35.160;26.100;2023-08-24T19:55:40;100772.38;;;27.75;100.00
56402;BME280;42299;35.160;26.100;2023-08-24T20:06:02;100766.81;;;27.28;100.00
56402;BME280;42299;35.160;26.100;2023-08-24T20:16:27;100758.25;;;27.18;100.00
56402;BME280;42299;35.160;26.100;2023-08-24T20:26:49;100765.66;;;26.63;100.00
56402;BME280;42299;35.160;26.100;2023-08-24T20:37:13;100759.81;;;26.89;100.00
56402;BME280;42299;35.160;26.100;2023-08-24T20:47:36;100769.06;;;26.49;100.00
56402;BME280;42299;35.160;26.100;2023-08-24T20:58:00;100771.41;;;26.57;100.00
56402;BME280;42299;35.160;26.100;2023-08-24T21:08:23;100770.06;;;26.30;100.00
56402;BME280;42299;35.160;26.100;2023-08-24T21:18:47;100772.22;;;26.03;100.00
56402;BME280;42299;35.160;26.100;2023-08-24T21:29:10;100770.66;;;25.99;100.00
56402;BME280;42299;35.160;26.100;2023-08-24T21:39:34;100753.19;;;26.23;100.00
56402;BME280;42299;35.160;26.100;2023-08-24T21:49:56;100749.44;;;25.90;100.00
56402;BME280;42299;35.160;26.100;2023-08-24T22:00:21;100751.91;;;25.94;100.00
56402;BME280;42299;35.160;26.100;2023-08-24T22:10:44;100740.63;;;26.22;100.00
56402;BME280;42299;35.160;26.100;2023-08-24T22:21:08;100738.16;;;26.17;100.00
56402;BME280;42299;35.160;26.100;2023-08-24T22:31:30;100735.22;;;26.03;100.00
56402;BME280;42299;35.160;26.100;2023-08-24T22:41:55;100738.47;;;25.93;100.00
56402;BME280;42299;35.160;26.100;2023-08-24T22:52:17;100729.69;;;25.69;100.00
56402;BME280;42299;35.160;26.100;2023-08-24T23:02:43;100718.78;;;25.89;100.00
56402;BME280;42299;35.160;26.100;2023-08-24T23:13:05;100704.09;;;25.76;100.00
56402;BME280;42299;35.160;26.100;2023-08-24T23:23:30;100699.75;;;25.53;100.00
56402;BME280;42299;35.160;26.100;2023-08-24T23:33:52;100703.31;;;25.35;100.00
56402;BME280;42299;35.160;26.100;2023-08-24T23:44:16;100680.38;;;25.44;100.00
56402;BME280;42299;35.160;26.100;2023-08-24T23:54:39;100682.75;;;25.12;100.00
